sensor_id;sensor_type;location;lat;lon;timestamp;P1;durP1;ratioP1;P2;durP2;ratioP2
38851;SDS011;24605;50.092;9.182;2023-03-23T00:01:21;5.03;;;1.40;;
38851;SDS011;24605;50.092;9.182;2023-03-23T00:03:51;3.42;;;1.20;;
38851;SDS011;24605;50.092;9.182;2023-03-23T00:06:21;3.20;;;1.50;;
38851;SDS011;24605;50.092;9.182;2023-03-23T00:08:49;4.75;;;1.40;;
38851;SDS011;24605;50.092;9.182;2023-03-23T00:11:23;2.70;;;1.48;;
38851;SDS011;24605;50.092;9.182;2023-03-23T00:13:51;4.40;;;1.55;;
38851;SDS011;24605;50.092;9.182;2023-03-23T00:16:19;2.83;;;1.30;;
38851;SDS011;24605;50.092;9.182;2023-03-23T00:18:54;3.95;;;1.40;;
38851;SDS011;24605;50.092;9.182;2023-03-23T00:21:22;3.72;;;1.20;;
38851;SDS011;24605;50.092;9.182;2023-03-23T00:23:58;3.78;;;1.23;;
38851;SDS011;24605;50.092;9.182;2023-03-23T00:26:27;3.60;;;1.60;;
38851;SDS011;24605;50.092;9.182;2023-03-23T00:28:54;3.08;;;1.10;;
38851;SDS011;24605;50.092;9.182;2023-03-23T00:31:21;2.95;;;1.00;;
38851;SDS011;24605;50.092;9.182;2023-03-23T00:33:47;3.05;;;1.10;;
38851;SDS011;24605;50.092;9.182;2023-03-23T00:36:14;4.45;;;1.35;;
38851;SDS011;24605;50.092;9.182;2023-03-23T00:38:42;5.72;;;1.40;;
38851;SDS011;24605;50.092;9.182;2023-03-23T00:41:09;2.83;;;1.10;;
38851;SDS011;24605;50.092;9.182;2023-03-23T00:43:37;10.20;;;1.50;;
38851;SDS011;24605;50.092;9.182;2023-03-23T00:46:04;7.22;;;1.58;;
38851;SDS011;24605;50.092;9.182;2023-03-23T00:48:34;3.17;;;0.90;;
38851;SDS011;24605;50.092;9.182;2023-03-23T00:51:01;2.88;;;0.93;;
38851;SDS011;24605;50.092;9.182;2023-03-23T00:53:31;3.70;;;1.00;;
38851;SDS011;24605;50.092;9.182;2023-03-23T00:55:58;3.60;;;0.95;;
38851;SDS011;24605;50.092;9.182;2023-03-23T00:58:24;3.42;;;0.90;;
38851;SDS011;24605;50.092;9.182;2023-03-23T01:00:52;3.00;;;0.80;;
38851;SDS011;24605;50.092;9.182;2023-03-23T01:03:19;3.80;;;1.05;;
38851;SDS011;24605;50.092;9.182;2023-03-23T01:05:45;2.40;;;0.82;;
38851;SDS011;24605;50.092;9.182;2023-03-23T01:08:13;1.90;;;1.00;;
38851;SDS011;24605;50.092;9.182;2023-03-23T01:10:41;1.83;;;0.90;;
38851;SDS011;24605;50.092;9.182;2023-03-23T01:13:07;3.17;;;1.00;;
38851;SDS011;24605;50.092;9.182;2023-03-23T01:15:34;3.97;;;1.00;;
38851;SDS011;24605;50.092;9.182;2023-03-23T01:18:03;2.80;;;0.70;;
38851;SDS011;24605;50.092;9.182;2023-03-23T01:20:30;2.47;;;0.90;;
38851;SDS011;24605;50.092;9.182;2023-03-23T01:22:57;2.30;;;0.90;;
38851;SDS011;24605;50.092;9.182;2023-03-23T01:25:25;3.85;;;1.10;;
38851;SDS011;24605;50.092;9.182;2023-03-23T01:27:52;3.67;;;0.95;;
38851;SDS011;24605;50.092;9.182;2023-03-23T01:30:19;3.65;;;1.20;;
38851;SDS011;24605;50.092;9.182;2023-03-23T01:32:45;1.60;;;0.90;;
38851;SDS011;24605;50.092;9.182;2023-03-23T01:35:13;2.25;;;0.90;;
38851;SDS011;24605;50.092;9.182;2023-03-23T01:37:40;1.85;;;0.80;;
38851;SDS011;24605;50.092;9.182;2023-03-23T01:40:07;2.47;;;1.10;;
38851;SDS011;24605;50.092;9.182;2023-03-23T01:42:35;3.95;;;1.10;;
38851;SDS011;24605;50.092;9.182;2023-03-23T01:47:54;3.72;;;1.08;;
38851;SDS011;24605;50.092;9.182;2023-03-23T01:50:28;3.37;;;0.90;;
38851;SDS011;24605;50.092;9.182;2023-03-23T01:53:03;3.07;;;1.03;;
38851;SDS011;24605;50.092;9.182;2023-03-23T01:55:33;1.67;;;0.83;;
38851;SDS011;24605;50.092;9.182;2023-03-23T01:58:04;3.38;;;0.80;;
38851;SDS011;24605;50.092;9.182;2023-03-23T02:00:32;2.20;;;0.90;;
38851;SDS011;24605;50.092;9.182;2023-03-23T02:02:59;3.40;;;1.15;;
38851;SDS011;24605;50.092;9.182;2023-03-23T02:05:29;2.25;;;1.00;;
38851;SDS011;24605;50.092;9.182;2023-03-23T02:08:00;3.65;;;0.90;;
38851;SDS011;24605;50.092;9.182;2023-03-23T02:10:31;1.90;;;1.00;;
38851;SDS011;24605;50.092;9.182;2023-03-23T02:13:00;4.22;;;1.00;;
38851;SDS011;24605;50.092;9.182;2023-03-23T02:15:30;2.28;;;0.82;;
38851;SDS011;24605;50.092;9.182;2023-03-23T02:18:04;2.45;;;1.00;;
38851;SDS011;24605;50.092;9.182;2023-03-23T02:26:47;1.95;;;0.90;;
38851;SDS011;24605;50.092;9.182;2023-03-23T02:29:37;4.05;;;1.00;;
38851;SDS011;24605;50.092;9.182;2023-03-23T02:32:16;1.45;;;0.75;;
38851;SDS011;24605;50.092;9.182;2023-03-23T02:35:06;2.20;;;0.80;;
38851;SDS011;24605;50.092;9.182;2023-03-23T02:37:37;1.90;;;0.85;;
38851;SDS011;24605;50.092;9.182;2023-03-23T02:40:12;2.58;;;1.05;;
38851;SDS011;24605;50.092;9.182;2023-03-23T02:42:43;3.08;;;1.10;;
38851;SDS011;24605;50.092;9.182;2023-03-23T02:45:15;3.05;;;1.05;;
38851;SDS011;24605;50.092;9.182;2023-03-23T02:47:43;2.22;;;1.00;;
38851;SDS011;24605;50.092;9.182;2023-03-23T02:50:14;3.63;;;1.00;;
38851;SDS011;24605;50.092;9.182;2023-03-23T02:52:42;2.15;;;0.90;;
38851;SDS011;24605;50.092;9.182;2023-03-23T02:55:11;2.08;;;0.85;;
38851;SDS011;24605;50.092;9.182;2023-03-23T02:57:38;2.28;;;0.93;;
38851;SDS011;24605;50.092;9.182;2023-03-23T03:00:06;3.10;;;0.93;;
38851;SDS011;24605;50.092;9.182;2023-03-23T03:02:35;2.58;;;1.08;;
38851;SDS011;24605;50.092;9.182;2023-03-23T03:05:06;2.65;;;0.90;;
38851;SDS011;24605;50.092;9.182;2023-03-23T03:07:48;1.70;;;0.90;;
38851;SDS011;24605;50.092;9.182;2023-03-23T03:10:23;1.80;;;0.90;;
38851;SDS011;24605;50.092;9.182;2023-03-23T03:12:54;2.25;;;0.90;;
38851;SDS011;24605;50.092;9.182;2023-03-23T03:15:29;3.47;;;0.98;;
38851;SDS011;24605;50.092;9.182;2023-03-23T03:18:00;2.17;;;1.00;;
38851;SDS011;24605;50.092;9.182;2023-03-23T03:20:33;2.58;;;0.98;;
38851;SDS011;24605;50.092;9.182;2023-03-23T03:23:05;3.22;;;1.20;;
38851;SDS011;24605;50.092;9.182;2023-03-23T03:25:34;2.80;;;1.00;;
38851;SDS011;24605;50.092;9.182;2023-03-23T03:28:02;2.15;;;1.08;;
38851;SDS011;24605;50.092;9.182;2023-03-23T03:30:30;2.63;;;1.00;;
38851;SDS011;24605;50.092;9.182;2023-03-23T03:33:01;3.45;;;1.10;;
38851;SDS011;24605;50.092;9.182;2023-03-23T03:35:28;3.22;;;1.10;;
38851;SDS011;24605;50.092;9.182;2023-03-23T03:37:56;2.20;;;1.00;;
38851;SDS011;24605;50.092;9.182;2023-03-23T03:40:26;1.95;;;0.98;;
38851;SDS011;24605;50.092;9.182;2023-03-23T03:42:53;2.95;;;1.30;;
38851;SDS011;24605;50.092;9.182;2023-03-23T03:45:19;3.30;;;1.35;;
38851;SDS011;24605;50.092;9.182;2023-03-23T03:47:46;3.67;;;1.08;;
38851;SDS011;24605;50.092;9.182;2023-03-23T03:50:13;3.05;;;1.20;;
38851;SDS011;24605;50.092;9.182;2023-03-23T03:52:40;1.95;;;0.90;;
38851;SDS011;24605;50.092;9.182;2023-03-23T03:55:07;2.35;;;1.30;;
38851;SDS011;24605;50.092;9.182;2023-03-23T03:57:35;1.50;;;0.93;;
38851;SDS011;24605;50.092;9.182;2023-03-23T04:00:02;3.88;;;1.25;;
38851;SDS011;24605;50.092;9.182;2023-03-23T04:02:38;3.60;;;1.15;;
38851;SDS011;24605;50.092;9.182;2023-03-23T04:05:05;3.72;;;1.30;;
38851;SDS011;24605;50.092;9.182;2023-03-23T04:07:34;2.75;;;1.08;;
38851;SDS011;24605;50.092;9.182;2023-03-23T04:10:02;3.08;;;1.10;;
38851;SDS011;24605;50.092;9.182;2023-03-23T04:12:29;4.60;;;1.20;;
38851;SDS011;24605;50.092;9.182;2023-03-23T04:14:57;4.03;;;1.42;;
38851;SDS011;24605;50.092;9.182;2023-03-23T04:17:23;2.28;;;1.30;;
38851;SDS011;24605;50.092;9.182;2023-03-23T04:19:51;3.30;;;1.10;;
38851;SDS011;24605;50.092;9.182;2023-03-23T04:22:17;3.38;;;1.23;;
38851;SDS011;24605;50.092;9.182;2023-03-23T04:24:44;2.78;;;1.40;;
38851;SDS011;24605;50.092;9.182;2023-03-23T04:27:10;2.65;;;1.20;;
38851;SDS011;24605;50.092;9.182;2023-03-23T04:29:38;3.08;;;1.35;;
38851;SDS011;24605;50.092;9.182;2023-03-23T04:32:05;5.85;;;1.35;;
38851;SDS011;24605;50.092;9.182;2023-03-23T04:34:32;3.28;;;1.17;;
38851;SDS011;24605;50.092;9.182;2023-03-23T04:37:00;2.10;;;1.10;;
38851;SDS011;24605;50.092;9.182;2023-03-23T04:39:26;3.22;;;1.25;;
38851;SDS011;24605;50.092;9.182;2023-03-23T04:41:53;2.22;;;1.00;;
38851;SDS011;24605;50.092;9.182;2023-03-23T04:44:20;3.17;;;1.20;;
38851;SDS011;24605;50.092;9.182;2023-03-23T04:46:46;5.25;;;1.33;;
38851;SDS011;24605;50.092;9.182;2023-03-23T04:49:15;2.72;;;1.20;;
38851;SDS011;24605;50.092;9.182;2023-03-23T04:51:46;3.10;;;1.38;;
38851;SDS011;24605;50.092;9.182;2023-03-23T04:54:12;3.72;;;1.60;;
38851;SDS011;24605;50.092;9.182;2023-03-23T04:56:39;3.00;;;1.10;;
38851;SDS011;24605;50.092;9.182;2023-03-23T04:59:06;3.65;;;1.48;;
38851;SDS011;24605;50.092;9.182;2023-03-23T05:01:32;2.92;;;1.23;;
38851;SDS011;24605;50.092;9.182;2023-03-23T05:04:02;2.83;;;1.17;;
38851;SDS011;24605;50.092;9.182;2023-03-23T05:06:29;2.30;;;1.17;;
38851;SDS011;24605;50.092;9.182;2023-03-23T05:08:56;3.03;;;1.20;;
38851;SDS011;24605;50.092;9.182;2023-03-23T05:11:22;3.67;;;1.10;;
38851;SDS011;24605;50.092;9.182;2023-03-23T05:13:50;4.32;;;1.35;;
38851;SDS011;24605;50.092;9.182;2023-03-23T05:16:16;3.65;;;1.30;;
38851;SDS011;24605;50.092;9.182;2023-03-23T05:18:43;3.67;;;1.60;;
38851;SDS011;24605;50.092;9.182;2023-03-23T05:21:11;3.75;;;1.40;;
38851;SDS011;24605;50.092;9.182;2023-03-23T05:23:40;3.67;;;1.55;;
38851;SDS011;24605;50.092;9.182;2023-03-23T05:26:07;3.22;;;1.48;;
38851;SDS011;24605;50.092;9.182;2023-03-23T05:28:34;2.75;;;1.20;;
38851;SDS011;24605;50.092;9.182;2023-03-23T05:31:01;5.03;;;1.48;;
38851;SDS011;24605;50.092;9.182;2023-03-23T05:33:27;3.95;;;1.70;;
38851;SDS011;24605;50.092;9.182;2023-03-23T05:35:54;3.17;;;1.48;;
38851;SDS011;24605;50.092;9.182;2023-03-23T05:38:21;3.75;;;1.95;;
38851;SDS011;24605;50.092;9.182;2023-03-23T05:40:48;2.75;;;1.65;;
38851;SDS011;24605;50.092;9.182;2023-03-23T05:43:15;4.35;;;1.58;;
38851;SDS011;24605;50.092;9.182;2023-03-23T05:45:41;4.80;;;1.95;;
38851;SDS011;24605;50.092;9.182;2023-03-23T05:48:08;3.65;;;2.10;;
38851;SDS011;24605;50.092;9.182;2023-03-23T05:50:34;3.47;;;1.60;;
38851;SDS011;24605;50.092;9.182;2023-03-23T05:53:01;3.45;;;1.50;;
38851;SDS011;24605;50.092;9.182;2023-03-23T05:55:29;6.13;;;1.95;;
38851;SDS011;24605;50.092;9.182;2023-03-23T05:57:58;4.35;;;1.63;;
38851;SDS011;24605;50.092;9.182;2023-03-23T06:00:24;5.47;;;1.90;;
38851;SDS011;24605;50.092;9.182;2023-03-23T06:02:54;5.50;;;1.63;;
38851;SDS011;24605;50.092;9.182;2023-03-23T06:05:21;3.72;;;1.70;;
38851;SDS011;24605;50.092;9.182;2023-03-23T06:07:48;3.30;;;1.52;;
38851;SDS011;24605;50.092;9.182;2023-03-23T06:10:15;3.67;;;1.73;;
38851;SDS011;24605;50.092;9.182;2023-03-23T06:12:41;4.50;;;1.40;;
38851;SDS011;24605;50.092;9.182;2023-03-23T06:15:10;4.60;;;1.75;;
38851;SDS011;24605;50.092;9.182;2023-03-23T06:17:37;3.33;;;1.58;;
38851;SDS011;24605;50.092;9.182;2023-03-23T06:20:04;3.25;;;1.42;;
38851;SDS011;24605;50.092;9.182;2023-03-23T06:22:35;4.00;;;1.77;;
38851;SDS011;24605;50.092;9.182;2023-03-23T06:25:05;3.47;;;1.67;;
38851;SDS011;24605;50.092;9.182;2023-03-23T06:27:32;3.65;;;1.45;;
38851;SDS011;24605;50.092;9.182;2023-03-23T06:30:00;4.90;;;1.55;;
38851;SDS011;24605;50.092;9.182;2023-03-23T06:32:29;2.50;;;1.27;;
38851;SDS011;24605;50.092;9.182;2023-03-23T06:34:57;2.63;;;1.42;;
38851;SDS011;24605;50.092;9.182;2023-03-23T06:37:24;3.35;;;1.73;;
38851;SDS011;24605;50.092;9.182;2023-03-23T06:39:50;3.90;;;1.58;;
38851;SDS011;24605;50.092;9.182;2023-03-23T06:42:17;3.72;;;1.73;;
38851;SDS011;24605;50.092;9.182;2023-03-23T06:44:44;4.28;;;1.60;;
38851;SDS011;24605;50.092;9.182;2023-03-23T06:47:11;4.75;;;1.70;;
38851;SDS011;24605;50.092;9.182;2023-03-23T06:49:38;4.05;;;1.45;;
38851;SDS011;24605;50.092;9.182;2023-03-23T06:52:05;3.28;;;1.50;;
38851;SDS011;24605;50.092;9.182;2023-03-23T06:54:32;4.70;;;1.90;;
38851;SDS011;24605;50.092;9.182;2023-03-23T06:59:30;3.58;;;1.67;;
38851;SDS011;24605;50.092;9.182;2023-03-23T07:01:57;3.55;;;1.70;;
38851;SDS011;24605;50.092;9.182;2023-03-23T07:04:23;4.22;;;1.67;;
38851;SDS011;24605;50.092;9.182;2023-03-23T07:06:50;4.30;;;2.22;;
38851;SDS011;24605;50.092;9.182;2023-03-23T07:09:16;6.55;;;2.55;;
38851;SDS011;24605;50.092;9.182;2023-03-23T07:11:43;3.97;;;2.10;;
38851;SDS011;24605;50.092;9.182;2023-03-23T07:14:12;5.38;;;2.00;;
38851;SDS011;24605;50.092;9.182;2023-03-23T07:16:41;4.22;;;2.00;;
38851;SDS011;24605;50.092;9.182;2023-03-23T07:19:07;4.30;;;1.90;;
38851;SDS011;24605;50.092;9.182;2023-03-23T07:21:34;5.85;;;2.28;;
38851;SDS011;24605;50.092;9.182;2023-03-23T07:24:00;4.03;;;2.20;;
38851;SDS011;24605;50.092;9.182;2023-03-23T07:26:27;4.40;;;2.38;;
38851;SDS011;24605;50.092;9.182;2023-03-23T07:28:53;4.43;;;1.65;;
38851;SDS011;24605;50.092;9.182;2023-03-23T07:31:20;3.08;;;1.75;;
38851;SDS011;24605;50.092;9.182;2023-03-23T07:33:48;4.78;;;2.22;;
38851;SDS011;24605;50.092;9.182;2023-03-23T07:36:14;4.90;;;2.53;;
38851;SDS011;24605;50.092;9.182;2023-03-23T07:38:41;4.38;;;2.28;;
38851;SDS011;24605;50.092;9.182;2023-03-23T07:41:09;4.38;;;2.17;;
38851;SDS011;24605;50.092;9.182;2023-03-23T07:43:35;4.68;;;2.15;;
38851;SDS011;24605;50.092;9.182;2023-03-23T07:46:02;4.47;;;2.10;;
38851;SDS011;24605;50.092;9.182;2023-03-23T07:48:28;5.00;;;2.08;;
38851;SDS011;24605;50.092;9.182;2023-03-23T07:50:57;3.63;;;1.85;;
38851;SDS011;24605;50.092;9.182;2023-03-23T07:53:24;10.15;;;2.20;;
38851;SDS011;24605;50.092;9.182;2023-03-23T07:55:51;4.57;;;2.25;;
38851;SDS011;24605;50.092;9.182;2023-03-23T07:58:18;4.30;;;2.10;;
38851;SDS011;24605;50.092;9.182;2023-03-23T08:00:45;4.38;;;1.95;;
38851;SDS011;24605;50.092;9.182;2023-03-23T08:03:14;4.90;;;2.30;;
38851;SDS011;24605;50.092;9.182;2023-03-23T08:05:40;4.97;;;2.17;;
38851;SDS011;24605;50.092;9.182;2023-03-23T08:08:09;6.05;;;2.47;;
38851;SDS011;24605;50.092;9.182;2023-03-23T08:10:36;4.10;;;2.10;;
38851;SDS011;24605;50.092;9.182;2023-03-23T08:13:03;3.90;;;2.30;;
38851;SDS011;24605;50.092;9.182;2023-03-23T08:15:31;4.40;;;2.00;;
38851;SDS011;24605;50.092;9.182;2023-03-23T08:17:58;3.67;;;2.15;;
38851;SDS011;24605;50.092;9.182;2023-03-23T08:20:25;5.18;;;2.42;;
38851;SDS011;24605;50.092;9.182;2023-03-23T08:22:53;5.35;;;2.45;;
38851;SDS011;24605;50.092;9.182;2023-03-23T08:25:23;5.72;;;2.20;;
38851;SDS011;24605;50.092;9.182;2023-03-23T08:27:51;4.07;;;2.22;;
38851;SDS011;24605;50.092;9.182;2023-03-23T08:30:18;4.93;;;2.28;;
38851;SDS011;24605;50.092;9.182;2023-03-23T08:32:47;4.28;;;2.15;;
38851;SDS011;24605;50.092;9.182;2023-03-23T08:35:14;4.20;;;1.90;;
38851;SDS011;24605;50.092;9.182;2023-03-23T08:37:41;5.13;;;2.65;;
38851;SDS011;24605;50.092;9.182;2023-03-23T08:40:09;4.13;;;2.13;;
38851;SDS011;24605;50.092;9.182;2023-03-23T08:42:38;4.13;;;2.10;;
38851;SDS011;24605;50.092;9.182;2023-03-23T08:45:06;4.32;;;2.10;;
38851;SDS011;24605;50.092;9.182;2023-03-23T08:47:35;4.53;;;2.05;;
38851;SDS011;24605;50.092;9.182;2023-03-23T08:50:01;4.68;;;2.47;;
38851;SDS011;24605;50.092;9.182;2023-03-23T08:52:29;3.70;;;1.65;;
38851;SDS011;24605;50.092;9.182;2023-03-23T08:54:55;5.07;;;1.90;;
38851;SDS011;24605;50.092;9.182;2023-03-23T08:57:22;3.83;;;1.70;;
38851;SDS011;24605;50.092;9.182;2023-03-23T08:59:50;4.25;;;2.10;;
38851;SDS011;24605;50.092;9.182;2023-03-23T09:02:19;6.60;;;1.92;;
38851;SDS011;24605;50.092;9.182;2023-03-23T09:04:46;5.53;;;2.30;;
38851;SDS011;24605;50.092;9.182;2023-03-23T09:07:14;4.22;;;1.45;;
38851;SDS011;24605;50.092;9.182;2023-03-23T09:09:40;5.25;;;2.10;;
38851;SDS011;24605;50.092;9.182;2023-03-23T09:12:07;3.50;;;1.80;;
38851;SDS011;24605;50.092;9.182;2023-03-23T09:14:35;3.85;;;1.50;;
38851;SDS011;24605;50.092;9.182;2023-03-23T09:17:03;3.05;;;1.50;;
38851;SDS011;24605;50.092;9.182;2023-03-23T09:19:30;4.60;;;1.52;;
38851;SDS011;24605;50.092;9.182;2023-03-23T09:21:59;3.13;;;1.70;;
38851;SDS011;24605;50.092;9.182;2023-03-23T09:24:26;4.80;;;1.60;;
38851;SDS011;24605;50.092;9.182;2023-03-23T09:26:52;3.40;;;1.77;;
38851;SDS011;24605;50.092;9.182;2023-03-23T09:29:19;4.50;;;1.65;;
38851;SDS011;24605;50.092;9.182;2023-03-23T09:31:46;3.92;;;1.50;;
38851;SDS011;24605;50.092;9.182;2023-03-23T09:34:14;4.65;;;1.70;;
38851;SDS011;24605;50.092;9.182;2023-03-23T09:36:41;3.60;;;1.58;;
38851;SDS011;24605;50.092;9.182;2023-03-23T09:39:09;2.75;;;1.50;;
38851;SDS011;24605;50.092;9.182;2023-03-23T09:41:46;3.67;;;1.45;;
38851;SDS011;24605;50.092;9.182;2023-03-23T09:44:28;3.38;;;1.60;;
38851;SDS011;24605;50.092;9.182;2023-03-23T09:47:03;5.55;;;1.80;;
38851;SDS011;24605;50.092;9.182;2023-03-23T09:49:36;4.55;;;1.90;;
38851;SDS011;24605;50.092;9.182;2023-03-23T09:52:08;3.22;;;1.58;;
38851;SDS011;24605;50.092;9.182;2023-03-23T09:54:41;3.33;;;1.60;;
38851;SDS011;24605;50.092;9.182;2023-03-23T09:57:11;3.45;;;1.60;;
38851;SDS011;24605;50.092;9.182;2023-03-23T09:59:43;3.00;;;1.55;;
38851;SDS011;24605;50.092;9.182;2023-03-23T10:02:14;2.95;;;1.30;;
38851;SDS011;24605;50.092;9.182;2023-03-23T10:04:45;2.95;;;1.35;;
38851;SDS011;24605;50.092;9.182;2023-03-23T10:07:13;4.57;;;1.58;;
38851;SDS011;24605;50.092;9.182;2023-03-23T10:09:41;3.05;;;1.40;;
38851;SDS011;24605;50.092;9.182;2023-03-23T10:12:14;3.60;;;1.60;;
38851;SDS011;24605;50.092;9.182;2023-03-23T10:14:51;2.72;;;1.33;;
38851;SDS011;24605;50.092;9.182;2023-03-23T10:17:26;5.05;;;1.60;;
38851;SDS011;24605;50.092;9.182;2023-03-23T10:20:00;3.40;;;1.42;;
38851;SDS011;24605;50.092;9.182;2023-03-23T10:22:41;2.83;;;1.20;;
38851;SDS011;24605;50.092;9.182;2023-03-23T10:25:14;2.10;;;1.00;;
38851;SDS011;24605;50.092;9.182;2023-03-23T10:27:44;2.75;;;1.23;;
38851;SDS011;24605;50.092;9.182;2023-03-23T10:30:17;2.67;;;1.20;;
38851;SDS011;24605;50.092;9.182;2023-03-23T10:32:50;5.85;;;2.25;;
38851;SDS011;24605;50.092;9.182;2023-03-23T10:35:22;9.90;;;3.35;;
38851;SDS011;24605;50.092;9.182;2023-03-23T10:37:53;3.60;;;1.30;;
38851;SDS011;24605;50.092;9.182;2023-03-23T10:40:30;2.33;;;1.10;;
38851;SDS011;24605;50.092;9.182;2023-03-23T10:42:58;2.58;;;1.33;;
38851;SDS011;24605;50.092;9.182;2023-03-23T10:45:26;2.30;;;1.17;;
38851;SDS011;24605;50.092;9.182;2023-03-23T10:47:55;3.45;;;1.40;;
38851;SDS011;24605;50.092;9.182;2023-03-23T10:50:27;3.30;;;1.60;;
38851;SDS011;24605;50.092;9.182;2023-03-23T10:52:57;2.88;;;1.50;;
38851;SDS011;24605;50.092;9.182;2023-03-23T10:55:34;3.38;;;1.60;;
38851;SDS011;24605;50.092;9.182;2023-03-23T10:58:03;3.30;;;1.48;;
38851;SDS011;24605;50.092;9.182;2023-03-23T11:00:32;3.10;;;1.50;;
38851;SDS011;24605;50.092;9.182;2023-03-23T11:03:02;2.70;;;1.20;;
38851;SDS011;24605;50.092;9.182;2023-03-23T11:05:36;3.78;;;1.35;;
38851;SDS011;24605;50.092;9.182;2023-03-23T11:08:10;2.97;;;1.00;;
38851;SDS011;24605;50.092;9.182;2023-03-23T11:10:40;2.97;;;1.30;;
38851;SDS011;24605;50.092;9.182;2023-03-23T11:13:11;6.85;;;3.95;;
38851;SDS011;24605;50.092;9.182;2023-03-23T11:15:40;2.55;;;1.20;;
38851;SDS011;24605;50.092;9.182;2023-03-23T11:18:10;3.38;;;1.30;;
38851;SDS011;24605;50.092;9.182;2023-03-23T11:20:40;4.50;;;1.30;;
38851;SDS011;24605;50.092;9.182;2023-03-23T11:23:10;3.60;;;1.00;;
38851;SDS011;24605;50.092;9.182;2023-03-23T11:25:52;4.47;;;1.55;;
38851;SDS011;24605;50.092;9.182;2023-03-23T11:28:25;2.05;;;1.10;;
38851;SDS011;24605;50.092;9.182;2023-03-23T11:30:54;2.40;;;1.10;;
38851;SDS011;24605;50.092;9.182;2023-03-23T11:33:22;2.53;;;0.98;;
38851;SDS011;24605;50.092;9.182;2023-03-23T11:35:51;2.67;;;1.00;;
38851;SDS011;24605;50.092;9.182;2023-03-23T11:38:21;4.07;;;0.93;;
38851;SDS011;24605;50.092;9.182;2023-03-23T11:40:52;5.90;;;1.10;;
38851;SDS011;24605;50.092;9.182;2023-03-23T11:43:21;3.22;;;1.13;;
38851;SDS011;24605;50.092;9.182;2023-03-23T11:45:50;3.08;;;1.15;;
38851;SDS011;24605;50.092;9.182;2023-03-23T11:48:26;2.08;;;0.90;;
38851;SDS011;24605;50.092;9.182;2023-03-23T11:50:59;2.58;;;1.00;;
38851;SDS011;24605;50.092;9.182;2023-03-23T11:53:31;2.08;;;1.00;;
38851;SDS011;24605;50.092;9.182;2023-03-23T11:56:09;2.38;;;0.95;;
38851;SDS011;24605;50.092;9.182;2023-03-23T11:58:41;2.10;;;1.00;;
38851;SDS011;24605;50.092;9.182;2023-03-23T12:01:11;2.45;;;1.05;;
38851;SDS011;24605;50.092;9.182;2023-03-23T12:03:53;1.88;;;0.70;;
38851;SDS011;24605;50.092;9.182;2023-03-23T12:06:32;2.58;;;0.85;;
38851;SDS011;24605;50.092;9.182;2023-03-23T12:09:08;1.23;;;0.70;;
38851;SDS011;24605;50.092;9.182;2023-03-23T12:11:45;1.27;;;0.70;;
38851;SDS011;24605;50.092;9.182;2023-03-23T12:14:20;2.17;;;0.93;;
38851;SDS011;24605;50.092;9.182;2023-03-23T12:16:58;2.42;;;0.80;;
38851;SDS011;24605;50.092;9.182;2023-03-23T12:19:33;1.85;;;0.82;;
38851;SDS011;24605;50.092;9.182;2023-03-23T12:22:18;1.80;;;0.80;;
38851;SDS011;24605;50.092;9.182;2023-03-23T12:27:32;2.65;;;1.50;;
38851;SDS011;24605;50.092;9.182;2023-03-23T12:30:10;2.10;;;0.93;;
38851;SDS011;24605;50.092;9.182;2023-03-23T12:32:49;1.23;;;0.80;;
38851;SDS011;24605;50.092;9.182;2023-03-23T12:35:32;2.15;;;0.93;;
38851;SDS011;24605;50.092;9.182;2023-03-23T12:38:13;1.80;;;0.90;;
38851;SDS011;24605;50.092;9.182;2023-03-23T12:43:47;1.48;;;0.75;;
38851;SDS011;24605;50.092;9.182;2023-03-23T12:49:31;2.95;;;1.00;;
38851;SDS011;24605;50.092;9.182;2023-03-23T12:52:03;2.30;;;0.70;;
38851;SDS011;24605;50.092;9.182;2023-03-23T12:54:40;2.67;;;0.90;;
38851;SDS011;24605;50.092;9.182;2023-03-23T12:57:14;2.17;;;0.90;;
38851;SDS011;24605;50.092;9.182;2023-03-23T12:59:47;5.07;;;1.20;;
38851;SDS011;24605;50.092;9.182;2023-03-23T13:02:21;3.28;;;1.20;;
38851;SDS011;24605;50.092;9.182;2023-03-23T13:04:51;1.70;;;0.70;;
38851;SDS011;24605;50.092;9.182;2023-03-23T13:07:25;1.70;;;0.82;;
38851;SDS011;24605;50.092;9.182;2023-03-23T13:10:00;1.80;;;0.80;;
38851;SDS011;24605;50.092;9.182;2023-03-23T13:12:31;2.83;;;1.08;;
38851;SDS011;24605;50.092;9.182;2023-03-23T13:15:05;2.17;;;0.90;;
38851;SDS011;24605;50.092;9.182;2023-03-23T13:17:43;2.67;;;0.93;;
38851;SDS011;24605;50.092;9.182;2023-03-23T13:20:20;1.85;;;0.93;;
38851;SDS011;24605;50.092;9.182;2023-03-23T13:22:58;2.70;;;0.90;;
38851;SDS011;24605;50.092;9.182;2023-03-23T13:25:38;3.20;;;0.93;;
38851;SDS011;24605;50.092;9.182;2023-03-23T13:28:14;3.10;;;1.20;;
38851;SDS011;24605;50.092;9.182;2023-03-23T13:30:52;3.55;;;1.10;;
38851;SDS011;24605;50.092;9.182;2023-03-23T13:33:21;1.85;;;0.90;;
38851;SDS011;24605;50.092;9.182;2023-03-23T13:35:48;2.67;;;0.95;;
38851;SDS011;24605;50.092;9.182;2023-03-23T13:38:18;3.88;;;1.85;;
38851;SDS011;24605;50.092;9.182;2023-03-23T13:40:51;4.03;;;2.40;;
38851;SDS011;24605;50.092;9.182;2023-03-23T13:43:25;2.85;;;1.20;;
38851;SDS011;24605;50.092;9.182;2023-03-23T13:46:06;2.03;;;1.00;;
38851;SDS011;24605;50.092;9.182;2023-03-23T13:48:44;3.90;;;2.17;;
38851;SDS011;24605;50.092;9.182;2023-03-23T13:51:23;3.35;;;1.48;;
38851;SDS011;24605;50.092;9.182;2023-03-23T13:54:03;4.30;;;1.67;;
38851;SDS011;24605;50.092;9.182;2023-03-23T13:56:35;2.50;;;1.27;;
38851;SDS011;24605;50.092;9.182;2023-03-23T13:59:07;2.72;;;1.38;;
38851;SDS011;24605;50.092;9.182;2023-03-23T14:01:39;3.20;;;1.33;;
38851;SDS011;24605;50.092;9.182;2023-03-23T14:04:09;2.38;;;1.10;;
38851;SDS011;24605;50.092;9.182;2023-03-23T14:06:39;4.25;;;1.60;;
38851;SDS011;24605;50.092;9.182;2023-03-23T14:09:07;3.67;;;1.92;;
38851;SDS011;24605;50.092;9.182;2023-03-23T14:11:47;2.53;;;1.20;;
38851;SDS011;24605;50.092;9.182;2023-03-23T14:14:17;2.42;;;1.20;;
38851;SDS011;24605;50.092;9.182;2023-03-23T14:16:49;1.77;;;0.90;;
38851;SDS011;24605;50.092;9.182;2023-03-23T14:19:18;2.35;;;1.00;;
38851;SDS011;24605;50.092;9.182;2023-03-23T14:21:51;1.42;;;0.80;;
38851;SDS011;24605;50.092;9.182;2023-03-23T14:24:21;2.15;;;0.90;;
38851;SDS011;24605;50.092;9.182;2023-03-23T14:26:51;1.23;;;0.70;;
38851;SDS011;24605;50.092;9.182;2023-03-23T14:29:19;3.08;;;0.80;;
38851;SDS011;24605;50.092;9.182;2023-03-23T14:31:48;1.80;;;0.80;;
38851;SDS011;24605;50.092;9.182;2023-03-23T14:34:21;2.15;;;0.82;;
38851;SDS011;24605;50.092;9.182;2023-03-23T14:36:50;1.75;;;0.90;;
38851;SDS011;24605;50.092;9.182;2023-03-23T14:39:20;3.33;;;1.08;;
38851;SDS011;24605;50.092;9.182;2023-03-23T14:41:48;2.67;;;0.85;;
38851;SDS011;24605;50.092;9.182;2023-03-23T14:44:18;2.38;;;0.85;;
38851;SDS011;24605;50.092;9.182;2023-03-23T14:46:48;1.55;;;0.70;;
38851;SDS011;24605;50.092;9.182;2023-03-23T14:49:16;1.70;;;0.70;;
38851;SDS011;24605;50.092;9.182;2023-03-23T14:51:49;1.67;;;0.80;;
38851;SDS011;24605;50.092;9.182;2023-03-23T14:54:19;2.28;;;0.80;;
38851;SDS011;24605;50.092;9.182;2023-03-23T14:56:49;1.88;;;0.70;;
38851;SDS011;24605;50.092;9.182;2023-03-23T14:59:16;1.95;;;0.95;;
38851;SDS011;24605;50.092;9.182;2023-03-23T15:01:45;1.85;;;0.65;;
38851;SDS011;24605;50.092;9.182;2023-03-23T15:04:14;2.80;;;0.95;;
38851;SDS011;24605;50.092;9.182;2023-03-23T15:06:43;1.75;;;0.75;;
38851;SDS011;24605;50.092;9.182;2023-03-23T15:09:15;2.08;;;0.88;;
38851;SDS011;24605;50.092;9.182;2023-03-23T15:11:50;2.22;;;0.98;;
38851;SDS011;24605;50.092;9.182;2023-03-23T15:14:20;1.80;;;0.80;;
38851;SDS011;24605;50.092;9.182;2023-03-23T15:16:49;1.75;;;0.60;;
38851;SDS011;24605;50.092;9.182;2023-03-23T15:19:18;1.75;;;0.80;;
38851;SDS011;24605;50.092;9.182;2023-03-23T15:21:48;2.00;;;0.82;;
38851;SDS011;24605;50.092;9.182;2023-03-23T15:29:55;1.95;;;0.80;;